KSFB/SFB METAR and TAF weather

Enter ICAO airport designator
Station Type Date Time Source
KSFB METAR 2020/09/19 02:25 UTC NOAA

KSFB 190225Z 04007KT 10SM BKN027 BKN034 OVC055 27/22 A2992 RMK AO2 T02720222


Station Type Date Time Source
KSFB Decoded METAR 2020/09/19 02:25 UTC NOAA

ORLANDO SANFORD AIRPORT, FL, United States (KSFB) 28-47N 081-15W
Sep 18, 2020 - 10:25 PM EDT / 2020.09.19 0225 UTC
Wind: from the NE (040 degrees) at 8 MPH (7 KT):0
Visibility: 10 mile(s):0
Sky conditions: overcast
Temperature: 81.0 F (27.2 C)
Dew Point: 72.0 F (22.2 C)
Relative Humidity: 74%
Pressure (altimeter): 29.92 in. Hg (1013 hPa)
ob: KSFB 190225Z 04007KT 10SM BKN027 BKN034 OVC055 27/22 A2992 RMK AO2 T02720222
cycle: 2

Station Type Date Time Source
KSFB TAF 2020/09/18 18:36 UTC NOAA

TAF KSFB 181735Z 1818/1918 26011KT P6SM SCT025 SCT035 BKN250
FM182100 30010KT P6SM SCT045 SCT250
FM190000 33007KT P6SM SCT040 SCT250
FM191500 04008KT P6SM FEW015 SCT025 BKN035

Example: see airport list